createdAt,value
2023-02-21T00:01:10.357Z,80
2023-02-21T00:02:33.129Z,83
2023-02-21T00:03:48.090Z,79
2023-02-21T00:05:15.623Z,79
2023-02-21T00:06:39.870Z,87
2023-02-21T00:07:52.451Z,84
2023-02-21T00:09:05.062Z,83
2023-02-21T00:10:35.802Z,83
2023-02-21T00:11:49.046Z,80
2023-02-21T00:13:01.137Z,85
2023-02-21T00:14:23.703Z,80
2023-02-21T00:15:38.023Z,79
2023-02-21T00:16:50.975Z,87
2023-02-21T00:18:03.039Z,83
2023-02-21T00:19:17.543Z,86
2023-02-21T00:20:30.163Z,80
2023-02-21T00:21:51.368Z,78
2023-02-21T00:23:05.489Z,81
2023-02-21T00:24:20.427Z,83
2023-02-21T00:25:33.472Z,86
2023-02-21T00:26:46.146Z,76
2023-02-21T00:27:58.741Z,79
2023-02-21T00:29:11.435Z,82
2023-02-21T00:30:24.579Z,76
2023-02-21T00:31:36.829Z,80
2023-02-21T00:32:59.934Z,74
2023-02-21T00:34:15.149Z,83
2023-02-21T00:35:28.065Z,84
2023-02-21T00:36:42.167Z,76
2023-02-21T00:37:55.724Z,76
2023-02-21T00:39:18.183Z,78
2023-02-21T00:40:30.640Z,79
2023-02-21T00:41:51.033Z,75
2023-02-21T00:43:03.818Z,85
2023-02-21T00:44:16.742Z,77
2023-02-21T00:45:29.686Z,76
2023-02-21T00:46:41.788Z,71
2023-02-21T00:47:56.371Z,73
2023-02-21T00:49:10.831Z,79
2023-02-21T00:50:47.379Z,78
2023-02-21T00:52:00.205Z,73
2023-02-21T00:53:12.423Z,76
2023-02-21T00:54:26.857Z,71
2023-02-21T00:55:52.410Z,79
2023-02-21T00:57:04.958Z,70
2023-02-21T00:58:17.970Z,74
2023-02-21T00:59:34.405Z,70
2023-02-21T01:00:48.869Z,71
2023-02-21T01:02:03.151Z,75
2023-02-21T01:03:17.082Z,65
2023-02-21T01:04:29.483Z,68
2023-02-21T01:05:44.191Z,71
2023-02-21T01:06:56.312Z,61
2023-02-21T01:08:17.959Z,66
2023-02-21T01:10:06.526Z,56
2023-02-21T01:11:19.697Z,61
2023-02-21T01:12:31.856Z,64
2023-02-21T01:14:45.946Z,66
2023-02-21T01:16:08.116Z,62
2023-02-21T01:17:22.748Z,59
2023-02-21T01:18:35.211Z,70
2023-02-21T01:19:51.293Z,64
2023-02-21T01:21:03.800Z,72
2023-02-21T01:22:16.213Z,73
2023-02-21T01:23:28.820Z,67
2023-02-21T01:24:40.956Z,65
2023-02-21T01:25:54.361Z,79
2023-02-21T01:27:25.065Z,70
2023-02-21T01:28:37.268Z,75
2023-02-21T01:29:49.576Z,77
2023-02-21T01:31:40.367Z,73
2023-02-21T01:32:52.765Z,75
2023-02-21T01:34:04.902Z,64
2023-02-21T01:35:17.005Z,68
2023-02-21T01:36:29.193Z,71
2023-02-21T01:37:41.317Z,70
2023-02-21T01:38:53.535Z,69
2023-02-21T01:40:05.992Z,68
2023-02-21T01:41:20.993Z,62
2023-02-21T01:42:38.584Z,81
2023-02-21T01:43:50.981Z,74
2023-02-21T01:45:05.532Z,72
2023-02-21T01:46:25.662Z,69
2023-02-21T01:47:41.880Z,68
2023-02-21T01:48:55.962Z,69
2023-02-21T01:50:30.419Z,76
2023-02-21T01:51:42.428Z,68
2023-02-21T01:52:56.876Z,73
2023-02-21T01:54:09.540Z,73
2023-02-21T01:55:22.828Z,72
2023-02-21T01:56:36.815Z,71
2023-02-21T01:57:49.292Z,70
2023-02-21T01:59:01.513Z,79
2023-02-21T02:00:13.546Z,69
2023-02-21T02:01:26.533Z,77
2023-02-21T02:02:44.153Z,68
2023-02-21T02:04:01.267Z,86
2023-02-21T02:05:17.847Z,82
2023-02-21T02:06:39.537Z,86
2023-02-21T02:07:56.178Z,83
2023-02-21T02:09:08.991Z,81
2023-02-21T02:10:38.044Z,85
2023-02-21T02:11:50.119Z,87
2023-02-21T02:13:11.842Z,93
2023-02-21T02:14:29.083Z,85
2023-02-21T02:15:48.093Z,84
2023-02-21T02:17:05.328Z,92
2023-02-21T02:18:19.204Z,91
2023-02-21T02:19:39.022Z,93
2023-02-21T02:20:51.167Z,96
2023-02-21T02:22:14.991Z,101
2023-02-21T02:23:33.403Z,100
2023-02-21T02:24:44.888Z,98
2023-02-21T02:25:58.427Z,95
2023-02-21T02:27:29.892Z,105
2023-02-21T02:28:42.081Z,101
2023-02-21T02:29:54.678Z,101
2023-02-21T02:31:21.218Z,107
2023-02-21T02:32:38.340Z,100
2023-02-21T02:33:49.544Z,102
2023-02-21T02:35:08.460Z,111
2023-02-21T02:36:30.519Z,112
2023-02-21T02:37:43.865Z,106
2023-02-21T02:38:59.284Z,114
2023-02-21T02:40:09.200Z,113
2023-02-21T02:41:25.090Z,111
2023-02-21T02:42:43.446Z,120
2023-02-21T02:44:00.827Z,121
2023-02-21T02:45:41.770Z,127
2023-02-21T02:46:59.134Z,122
2023-02-21T02:48:19.097Z,118
2023-02-21T02:49:31.993Z,123
2023-02-21T02:50:44.441Z,128
2023-02-21T02:51:51.650Z,127
2023-02-21T02:52:59.454Z,126
2023-02-21T02:54:19.337Z,119
2023-02-21T02:55:27.285Z,132
2023-02-21T02:56:47.159Z,132
2023-02-21T02:57:55.311Z,136
2023-02-21T02:59:02.748Z,136
2023-02-21T03:00:18.311Z,137
2023-02-21T03:01:25.842Z,143
2023-02-21T03:02:40.646Z,139
2023-02-21T03:03:59.114Z,140
2023-02-21T03:05:12.554Z,141
2023-02-21T03:06:36.182Z,143
2023-02-21T03:07:46.098Z,147
2023-02-21T03:08:58.230Z,141
2023-02-21T03:10:13.367Z,147
2023-02-21T03:11:43.626Z,154
2023-02-21T03:12:59.604Z,158
2023-02-21T03:14:11.468Z,151
2023-02-21T03:15:18.437Z,149
2023-02-21T03:16:25.370Z,144
2023-02-21T03:17:35.253Z,147
2023-02-21T03:18:42.367Z,153
2023-02-21T03:19:57.624Z,160
2023-02-21T03:21:19.613Z,144
2023-02-21T03:22:32.754Z,143
2023-02-21T03:23:41.374Z,146
2023-02-21T03:24:48.434Z,144
2023-02-21T03:26:00.835Z,142
2023-02-21T03:27:12.221Z,145
2023-02-21T03:28:19.426Z,134
2023-02-21T03:29:39.378Z,141
2023-02-21T03:30:46.922Z,138
2023-02-21T03:31:56.731Z,143
2023-02-21T03:33:11.862Z,137
2023-02-21T03:34:21.451Z,130
2023-02-21T03:35:29.094Z,130
2023-02-21T03:36:42.298Z,135
2023-02-21T03:37:49.658Z,133
2023-02-21T03:38:56.886Z,132
2023-02-21T03:40:05.638Z,140
2023-02-21T03:41:15.176Z,134
2023-02-21T03:42:46.954Z,133
2023-02-21T03:43:54.832Z,143
2023-02-21T03:45:13.885Z,134
2023-02-21T03:46:30.946Z,137
2023-02-21T03:47:52.671Z,139
2023-02-21T03:48:59.905Z,139
2023-02-21T03:50:16.967Z,137
2023-02-21T03:51:26.647Z,127
2023-02-21T03:52:35.535Z,134
2023-02-21T03:53:42.718Z,126
2023-02-21T03:55:02.975Z,129
2023-02-21T03:56:15.464Z,128
2023-02-21T03:57:24.512Z,126
2023-02-21T03:58:33.904Z,127
2023-02-21T04:00:04.200Z,121
2023-02-21T04:01:29.813Z,116
2023-02-21T04:02:51.170Z,123
2023-02-21T04:04:03.849Z,123
2023-02-21T04:05:13.747Z,112
2023-02-21T04:06:21.161Z,112
2023-02-21T04:07:30.967Z,123
2023-02-21T04:08:41.072Z,119
2023-02-21T04:09:57.967Z,121
2023-02-21T04:11:06.746Z,129
2023-02-21T04:12:19.054Z,120
2023-02-21T04:13:28.650Z,117
2023-02-21T04:14:55.042Z,113
2023-02-21T04:17:03.122Z,123
2023-02-21T04:18:15.806Z,122
2023-02-21T04:19:23.351Z,126
2023-02-21T04:20:30.529Z,121
2023-02-21T04:21:37.594Z,133
2023-02-21T04:22:49.511Z,116
2023-02-21T04:23:53.734Z,128
2023-02-21T04:25:00.631Z,119
2023-02-21T04:26:11.947Z,114
2023-02-21T04:27:29.291Z,109
2023-02-21T04:28:37.125Z,107
2023-02-21T04:30:14.682Z,118
2023-02-21T04:31:22.636Z,111
2023-02-21T04:32:34.869Z,109
2023-02-21T04:33:44.392Z,110
2023-02-21T04:34:54.416Z,111
2023-02-21T04:36:02.847Z,113
2023-02-21T04:37:36.658Z,110
2023-02-21T04:39:02.347Z,115
2023-02-21T04:40:16.199Z,118
2023-02-21T04:41:24.297Z,128
2023-02-21T04:42:31.508Z,123
2023-02-21T04:43:49.224Z,124
2023-02-21T04:45:00.177Z,121
2023-02-21T04:46:03.483Z,116
2023-02-21T04:47:10.936Z,130
2023-02-21T04:48:18.952Z,122
2023-02-21T04:49:28.685Z,119
2023-02-21T04:50:48.328Z,128
2023-02-21T04:52:28.473Z,123
2023-02-21T04:53:36.308Z,113
2023-02-21T04:54:48.256Z,122
2023-02-21T04:56:27.829Z,118
2023-02-21T04:57:34.941Z,116
2023-02-21T04:58:45.495Z,127
2023-02-21T04:59:51.435Z,126
2023-02-21T05:01:04.805Z,114
2023-02-21T05:02:12.316Z,110
2023-02-21T05:03:19.751Z,114
2023-02-21T05:04:27.345Z,119
2023-02-21T05:05:35.495Z,115
2023-02-21T05:06:45.297Z,122
2023-02-21T05:07:53.079Z,114
2023-02-21T05:09:02.235Z,126
2023-02-21T05:10:10.164Z,116
2023-02-21T05:11:22.991Z,118
2023-02-21T05:12:29.990Z,115
2023-02-21T05:13:47.346Z,116
2023-02-21T05:15:39.512Z,114
2023-02-21T05:16:49.676Z,114
2023-02-21T05:17:59.008Z,116
2023-02-21T05:19:06.362Z,118
2023-02-21T05:20:50.481Z,114
2023-02-21T05:21:57.411Z,120
2023-02-21T05:23:13.647Z,111
2023-02-21T05:24:22.582Z,111
2023-02-21T05:26:05.292Z,110
2023-02-21T05:27:22.090Z,120
2023-02-21T05:28:29.679Z,114
2023-02-21T05:30:59.125Z,112
2023-02-21T05:32:22.868Z,114
2023-02-21T05:33:31.697Z,112
2023-02-21T05:34:45.283Z,119
2023-02-21T05:36:03.704Z,118
2023-02-21T05:37:11.775Z,111
2023-02-21T05:38:53.742Z,116
2023-02-21T05:40:03.866Z,115
2023-02-21T05:41:12.548Z,115
2023-02-21T05:42:20.468Z,114
2023-02-21T05:43:29.246Z,119
2023-02-21T05:44:38.971Z,114
2023-02-21T05:45:52.207Z,117
2023-02-21T05:46:59.747Z,124
2023-02-21T05:48:10.972Z,124
2023-02-21T05:50:11.446Z,123
2023-02-21T05:51:18.932Z,133
2023-02-21T05:52:36.951Z,128
2023-02-21T05:53:44.016Z,126
2023-02-21T05:55:26.441Z,124
2023-02-21T05:56:36.154Z,134
2023-02-21T05:57:48.330Z,121
2023-02-21T05:59:04.925Z,124
2023-02-21T06:00:30.856Z,122
2023-02-21T06:01:58.179Z,119
2023-02-21T06:03:05.222Z,114
2023-02-21T06:04:12.452Z,118
2023-02-21T06:05:37.702Z,114
2023-02-21T06:06:50.159Z,117
2023-02-21T06:07:58.974Z,121
2023-02-21T06:09:06.120Z,120
2023-02-21T06:10:13.154Z,117
2023-02-21T06:11:37.817Z,121
2023-02-21T06:12:55.810Z,121
2023-02-21T06:14:18.589Z,127
2023-02-21T06:15:49.827Z,116
2023-02-21T06:17:03.140Z,121
2023-02-21T06:18:12.991Z,125
2023-02-21T06:19:20.270Z,124
2023-02-21T06:20:54.333Z,111
2023-02-21T06:22:02.498Z,121
2023-02-21T06:23:09.451Z,121
2023-02-21T06:24:16.688Z,121
2023-02-21T06:25:24.920Z,120
2023-02-21T06:27:15.960Z,115
2023-02-21T06:28:29.888Z,117
2023-02-21T06:29:37.724Z,113
2023-02-21T06:30:47.028Z,116
2023-02-21T06:31:56.850Z,115
2023-02-21T06:33:04.676Z,126
2023-02-21T06:34:11.757Z,113
2023-02-21T06:35:21.396Z,114
2023-02-21T06:36:29.502Z,117
2023-02-21T06:37:38.338Z,120
2023-02-21T06:38:55.412Z,125
2023-02-21T06:40:12.506Z,119
2023-02-21T06:42:04.110Z,117
2023-02-21T06:43:12.651Z,119
2023-02-21T06:44:28.689Z,119
2023-02-21T06:45:37.255Z,119
2023-02-21T06:46:46.214Z,111
2023-02-21T06:48:01.587Z,111
2023-02-21T06:49:39.947Z,106
2023-02-21T06:51:27.946Z,104
2023-02-21T06:52:40.510Z,116
2023-02-21T06:54:47.573Z,109
2023-02-21T06:55:57.458Z,103
2023-02-21T06:57:18.042Z,107
2023-02-21T06:58:25.689Z,108
2023-02-21T06:59:33.564Z,102
2023-02-21T07:00:41.652Z,107
2023-02-21T07:02:13.185Z,110
2023-02-21T07:03:37.061Z,102
2023-02-21T07:05:00.421Z,101
2023-02-21T07:06:47.316Z,104
2023-02-21T07:07:56.892Z,100
2023-02-21T07:09:04.230Z,103
2023-02-21T07:10:15.864Z,103
2023-02-21T07:11:42.497Z,97
2023-02-21T07:12:49.721Z,104
2023-02-21T07:14:01.652Z,102
2023-02-21T07:15:11.221Z,93
2023-02-21T07:16:21.931Z,104
2023-02-21T07:17:49.644Z,102
2023-02-21T07:18:57.370Z,98
2023-02-21T07:20:04.771Z,104
2023-02-21T07:22:35.558Z,99
2023-02-21T07:23:43.149Z,98
2023-02-21T07:25:47.008Z,95
2023-02-21T07:27:03.768Z,93
2023-02-21T07:28:38.378Z,95
2023-02-21T07:29:45.633Z,92
2023-02-21T07:31:27.931Z,94
2023-02-21T07:32:49.241Z,93
2023-02-21T07:34:15.152Z,96
2023-02-21T07:35:44.506Z,96
2023-02-21T07:36:51.510Z,105
2023-02-21T07:38:07.405Z,94
2023-02-21T07:39:15.567Z,98
2023-02-21T07:40:34.484Z,101
2023-02-21T07:41:41.937Z,98
2023-02-21T07:42:48.968Z,104
2023-02-21T07:43:57.077Z,100
2023-02-21T07:45:04.665Z,90
2023-02-21T07:46:14.635Z,95
2023-02-21T07:47:22.705Z,96
2023-02-21T07:48:30.021Z,95
2023-02-21T07:49:36.994Z,96
2023-02-21T07:50:44.146Z,102
2023-02-21T07:51:53.674Z,104
2023-02-21T07:53:00.632Z,97
2023-02-21T07:54:07.649Z,102
2023-02-21T07:55:15.277Z,106
2023-02-21T07:56:23.705Z,106
2023-02-21T07:57:33.746Z,98
2023-02-21T07:58:41.988Z,99
2023-02-21T07:59:51.767Z,103
2023-02-21T08:00:58.687Z,98
2023-02-21T08:02:06.145Z,99
2023-02-21T08:03:13.279Z,105
2023-02-21T08:04:21.094Z,110
2023-02-21T08:05:28.376Z,111
2023-02-21T08:06:35.642Z,104
2023-02-21T08:07:45.613Z,102
2023-02-21T08:08:54.234Z,101
2023-02-21T08:10:04.724Z,104
2023-02-21T08:11:13.355Z,104
2023-02-21T08:12:22.990Z,100
2023-02-21T08:13:30.210Z,92
2023-02-21T08:14:40.244Z,97
2023-02-21T08:15:50.062Z,103
2023-02-21T08:16:57.288Z,96
2023-02-21T08:18:07.128Z,95
2023-02-21T08:19:19.530Z,100
2023-02-21T08:20:26.509Z,104
2023-02-21T08:21:34.325Z,96
2023-02-21T08:22:45.269Z,94
2023-02-21T08:23:52.237Z,98
2023-02-21T08:25:02.860Z,97
2023-02-21T08:26:10.008Z,96
2023-02-21T08:27:31.148Z,97
2023-02-21T08:28:38.997Z,91
2023-02-21T08:29:45.904Z,89
2023-02-21T08:31:02.264Z,98
2023-02-21T08:32:09.320Z,96
2023-02-21T08:33:25.141Z,92
2023-02-21T08:34:32.136Z,102
2023-02-21T08:35:40.060Z,90
2023-02-21T08:36:47.886Z,93
2023-02-21T08:37:54.727Z,94
2023-02-21T08:39:01.634Z,87
2023-02-21T08:40:11.283Z,77
2023-02-21T08:41:18.264Z,81
2023-02-21T08:42:28.423Z,84
2023-02-21T08:43:35.325Z,77
2023-02-21T08:44:50.808Z,86
2023-02-21T08:46:01.507Z,77
2023-02-21T08:47:08.492Z,74
2023-02-21T08:48:18.287Z,74
2023-02-21T08:49:29.092Z,75
2023-02-21T08:50:36.114Z,75
2023-02-21T08:51:43.084Z,74
2023-02-21T08:52:51.293Z,69
2023-02-21T08:53:58.393Z,69
2023-02-21T08:55:09.093Z,71
2023-02-21T08:56:16.025Z,75
2023-02-21T08:57:30.453Z,64
2023-02-21T08:58:38.145Z,60
2023-02-21T08:59:44.450Z,64
2023-02-21T09:00:52.084Z,53
2023-02-21T09:01:58.988Z,56
2023-02-21T09:03:06.633Z,56
2023-02-21T09:04:15.087Z,59
2023-02-21T09:05:22.088Z,42
2023-02-21T09:06:31.532Z,56
2023-02-21T09:07:38.529Z,50
2023-02-21T09:08:50.037Z,45
2023-02-21T09:09:56.996Z,41
2023-02-21T09:11:03.969Z,34
2023-02-21T09:12:14.689Z,32
2023-02-21T09:13:21.647Z,30
2023-02-21T09:14:31.051Z,28
2023-02-21T09:15:39.166Z,25
2023-02-21T09:16:47.979Z,36
2023-02-21T09:17:54.182Z,41
2023-02-21T09:19:01.516Z,35
2023-02-21T09:20:08.307Z,32
2023-02-21T09:21:18.973Z,29
2023-02-21T09:22:25.805Z,36
2023-02-21T09:23:32.785Z,29
2023-02-21T09:24:40.510Z,25
2023-02-21T09:25:47.461Z,34
2023-02-21T09:26:55.360Z,27
2023-02-21T09:28:07.390Z,36
2023-02-21T09:29:15.262Z,36
2023-02-21T09:30:22.165Z,32
2023-02-21T09:31:30.062Z,25
2023-02-21T09:32:37.723Z,25
2023-02-21T09:33:44.582Z,32
2023-02-21T09:34:52.478Z,31
2023-02-21T09:35:59.447Z,30
2023-02-21T09:37:07.146Z,25
2023-02-21T09:38:13.899Z,29
2023-02-21T09:39:20.869Z,39
2023-02-21T09:40:29.474Z,29
2023-02-21T09:41:47.671Z,37
2023-02-21T09:42:54.752Z,37
2023-02-21T09:44:01.689Z,28
2023-02-21T09:45:08.528Z,29
2023-02-21T09:46:18.391Z,33
2023-02-21T09:47:35.452Z,26
2023-02-21T09:48:42.571Z,25
2023-02-21T09:49:49.487Z,34
2023-02-21T09:50:56.266Z,31
2023-02-21T09:52:03.248Z,30
2023-02-21T09:53:10.865Z,25
2023-02-21T09:54:17.792Z,28
2023-02-21T09:55:30.760Z,28
2023-02-21T09:56:39.589Z,25
2023-02-21T09:57:47.576Z,28
2023-02-21T09:58:54.544Z,30
2023-02-21T10:00:01.720Z,44
2023-02-21T10:01:18.796Z,40
2023-02-21T10:02:26.443Z,58
2023-02-21T10:03:41.092Z,64
2023-02-21T10:04:48.049Z,56
2023-02-21T10:06:06.096Z,55
2023-02-21T10:07:15.819Z,53
2023-02-21T10:08:26.378Z,54
2023-02-21T10:09:38.449Z,49
2023-02-21T10:10:51.257Z,56
2023-02-21T10:12:00.758Z,53
2023-02-21T10:13:16.851Z,56
2023-02-21T10:14:34.680Z,53
2023-02-21T10:15:46.598Z,47
2023-02-21T10:16:58.960Z,43
2023-02-21T10:18:06.726Z,38
2023-02-21T10:19:22.690Z,40
2023-02-21T10:20:30.475Z,41
2023-02-21T10:21:42.457Z,33
2023-02-21T10:22:49.443Z,32
2023-02-21T10:23:57.384Z,33
2023-02-21T10:25:04.198Z,25
2023-02-21T10:26:11.140Z,27
2023-02-21T10:27:17.976Z,25
2023-02-21T10:28:31.388Z,25
2023-02-21T10:29:38.381Z,25
2023-02-21T10:30:51.137Z,25
2023-02-21T10:32:03.273Z,34
2023-02-21T10:33:10.415Z,26
2023-02-21T10:34:18.926Z,27
2023-02-21T10:35:27.225Z,28
2023-02-21T10:36:39.274Z,28
2023-02-21T10:37:46.253Z,29
2023-02-21T10:38:59.543Z,25
2023-02-21T10:40:14.293Z,38
2023-02-21T10:41:31.365Z,25
2023-02-21T10:42:38.236Z,30
2023-02-21T10:43:48.813Z,27
2023-02-21T10:44:55.673Z,25
2023-02-21T10:46:05.765Z,25
2023-02-21T10:47:12.617Z,30
2023-02-21T10:48:23.936Z,30
2023-02-21T10:49:30.883Z,36
2023-02-21T10:50:42.924Z,28
2023-02-21T10:52:00.188Z,27
2023-02-21T10:53:12.212Z,25
2023-02-21T10:54:26.699Z,36
2023-02-21T10:55:33.807Z,32
2023-02-21T10:56:40.611Z,36
2023-02-21T10:57:48.752Z,32
2023-02-21T10:58:58.604Z,38
2023-02-21T11:00:07.472Z,27
2023-02-21T11:01:15.014Z,31
2023-02-21T11:02:26.730Z,42
2023-02-21T11:03:36.697Z,40
2023-02-21T11:04:46.670Z,31
2023-02-21T11:05:54.433Z,29
2023-02-21T11:07:01.380Z,31
2023-02-21T11:08:11.179Z,35
2023-02-21T11:09:18.188Z,41
2023-02-21T11:10:30.292Z,30
2023-02-21T11:11:47.793Z,32
2023-02-21T11:12:54.723Z,27
2023-02-21T11:14:06.906Z,39
2023-02-21T11:15:24.110Z,36
2023-02-21T11:16:31.093Z,38
2023-02-21T11:17:38.058Z,36
2023-02-21T11:18:45.086Z,37
2023-02-21T11:19:52.054Z,45
2023-02-21T11:20:59.011Z,43
2023-02-21T11:22:17.201Z,38
2023-02-21T11:23:30.079Z,32
2023-02-21T11:24:41.301Z,32
2023-02-21T11:25:52.073Z,31
2023-02-21T11:27:04.089Z,25
2023-02-21T11:28:11.001Z,29
2023-02-21T11:29:17.990Z,27
2023-02-21T11:30:25.062Z,39
2023-02-21T11:31:32.205Z,35
2023-02-21T11:32:39.072Z,29
2023-02-21T11:33:45.942Z,37
2023-02-21T11:34:55.822Z,35
2023-02-21T11:36:07.893Z,38
2023-02-21T11:37:14.872Z,39
2023-02-21T11:38:21.844Z,29
2023-02-21T11:39:36.593Z,30
2023-02-21T11:40:43.574Z,28
2023-02-21T11:41:53.202Z,31
2023-02-21T11:43:02.838Z,28
2023-02-21T11:44:19.834Z,28
2023-02-21T11:45:34.542Z,29
2023-02-21T11:46:42.970Z,25
2023-02-21T11:47:49.986Z,25
2023-02-21T11:48:59.802Z,32
2023-02-21T11:50:13.312Z,25
2023-02-21T11:51:25.321Z,25
2023-02-21T11:52:41.294Z,27
2023-02-21T11:53:53.286Z,25
2023-02-21T11:55:00.201Z,31
2023-02-21T11:56:07.406Z,31
2023-02-21T11:57:27.283Z,33
2023-02-21T11:58:39.294Z,29
2023-02-21T11:59:49.010Z,26
2023-02-21T12:01:01.511Z,34
2023-02-21T12:02:10.525Z,37
2023-02-21T12:03:27.576Z,33
2023-02-21T12:04:42.454Z,38
2023-02-21T12:06:00.506Z,33
2023-02-21T12:07:15.335Z,37
2023-02-21T12:08:25.174Z,48
2023-02-21T12:09:39.930Z,43
2023-02-21T12:10:59.198Z,46
2023-02-21T12:12:11.197Z,44
2023-02-21T12:13:28.316Z,56
2023-02-21T12:14:47.295Z,54
2023-02-21T12:15:59.345Z,58
2023-02-21T12:17:12.369Z,63
2023-02-21T12:18:26.516Z,73
2023-02-21T12:19:38.610Z,73
2023-02-21T12:20:48.952Z,71
2023-02-21T12:22:05.212Z,70
2023-02-21T12:23:23.071Z,74
2023-02-21T12:24:37.955Z,66
2023-02-21T12:25:55.107Z,77
2023-02-21T12:27:12.202Z,75
2023-02-21T12:28:29.276Z,78
2023-02-21T12:29:41.272Z,82
2023-02-21T12:30:50.834Z,94
2023-02-21T12:32:07.914Z,97
2023-02-21T12:33:26.007Z,114
2023-02-21T12:34:40.512Z,115
2023-02-21T12:35:50.378Z,126
2023-02-21T12:37:07.340Z,116
2023-02-21T12:38:19.543Z,113
2023-02-21T12:39:34.905Z,114
2023-02-21T12:40:47.032Z,117
2023-02-21T12:42:04.287Z,117
2023-02-21T12:43:21.441Z,117
2023-02-21T12:44:36.324Z,118
2023-02-21T12:45:53.393Z,120
2023-02-21T12:47:13.918Z,140
2023-02-21T12:48:20.925Z,124
2023-02-21T12:49:34.627Z,117
2023-02-21T12:50:46.605Z,114
2023-02-21T12:51:55.251Z,105
2023-02-21T12:53:12.379Z,116
2023-02-21T12:54:19.345Z,115
2023-02-21T12:55:32.372Z,115
2023-02-21T12:56:39.296Z,109
2023-02-21T12:57:51.299Z,106
2023-02-21T12:59:08.348Z,110
2023-02-21T13:00:15.216Z,102
2023-02-21T13:01:32.442Z,104
2023-02-21T13:02:42.316Z,100
2023-02-21T13:03:54.389Z,101
2023-02-21T13:05:06.417Z,100
2023-02-21T13:06:13.345Z,101
2023-02-21T13:07:28.782Z,95
2023-02-21T13:08:44.784Z,94
2023-02-21T13:09:59.289Z,98
2023-02-21T13:11:09.060Z,109
2023-02-21T13:12:23.804Z,98
2023-02-21T13:13:41.075Z,93
2023-02-21T13:14:51.240Z,101
2023-02-21T13:16:01.794Z,99
2023-02-21T13:17:11.596Z,99
2023-02-21T13:18:18.764Z,89
2023-02-21T13:19:25.883Z,86
2023-02-21T13:20:36.571Z,91
2023-02-21T13:21:43.479Z,87
2023-02-21T13:22:59.820Z,92
2023-02-21T13:24:22.247Z,83
2023-02-21T13:25:37.322Z,91
2023-02-21T13:26:47.295Z,102
2023-02-21T13:28:18.022Z,107
2023-02-21T13:29:25.097Z,112
2023-02-21T13:30:36.732Z,114
2023-02-21T13:31:43.797Z,125
2023-02-21T13:32:52.357Z,118
2023-02-21T13:33:59.296Z,129
2023-02-21T13:35:08.166Z,137
2023-02-21T13:36:16.082Z,131
2023-02-21T13:37:32.735Z,128
2023-02-21T13:38:39.687Z,136
2023-02-21T13:39:53.495Z,135
2023-02-21T13:40:57.712Z,131
2023-02-21T13:42:10.801Z,124
2023-02-21T13:43:21.248Z,116
2023-02-21T13:44:34.251Z,117
2023-02-21T13:45:44.112Z,113
2023-02-21T13:46:53.292Z,115
2023-02-21T13:48:01.097Z,100
2023-02-21T13:49:14.500Z,102
2023-02-21T13:50:33.077Z,98
2023-02-21T13:51:42.778Z,108
2023-02-21T13:52:50.940Z,106
2023-02-21T13:53:57.857Z,104
2023-02-21T13:55:16.593Z,100
2023-02-21T13:56:24.429Z,99
2023-02-21T13:57:39.042Z,98
2023-02-21T13:58:56.157Z,99
2023-02-21T14:00:08.505Z,103
2023-02-21T14:01:27.868Z,103
2023-02-21T14:02:36.999Z,94
2023-02-21T14:03:47.280Z,85
2023-02-21T14:04:54.236Z,82
2023-02-21T14:06:01.117Z,84
2023-02-21T14:07:13.197Z,86
2023-02-21T14:08:20.111Z,94
2023-02-21T14:09:32.076Z,77
2023-02-21T14:10:40.633Z,73
2023-02-21T14:11:50.213Z,70
2023-02-21T14:12:58.232Z,73
2023-02-21T14:14:05.173Z,64
2023-02-21T14:15:22.362Z,64
2023-02-21T14:16:29.483Z,65
2023-02-21T14:17:38.883Z,70
2023-02-21T14:18:45.891Z,59
2023-02-21T14:19:57.614Z,71
2023-02-21T14:21:05.836Z,64
2023-02-21T14:22:12.936Z,65
2023-02-21T14:23:24.974Z,60
2023-02-21T14:24:35.056Z,63
2023-02-21T14:25:42.931Z,78
2023-02-21T14:26:57.895Z,65
2023-02-21T14:28:09.799Z,69
2023-02-21T14:29:27.757Z,56
2023-02-21T14:30:44.879Z,63
2023-02-21T14:31:54.392Z,66
2023-02-21T14:33:06.759Z,59
2023-02-21T14:34:18.732Z,58
2023-02-21T14:35:30.753Z,55
2023-02-21T14:36:43.904Z,53
2023-02-21T14:37:51.004Z,56
2023-02-21T14:39:04.057Z,57
2023-02-21T14:40:11.158Z,59
2023-02-21T14:41:22.116Z,43
2023-02-21T14:42:44.903Z,51
2023-02-21T14:44:01.515Z,43
2023-02-21T14:45:16.244Z,55
2023-02-21T14:46:29.188Z,52
2023-02-21T14:47:47.109Z,61
2023-02-21T14:49:04.231Z,55
2023-02-21T14:50:16.864Z,56
2023-02-21T14:51:31.505Z,58
2023-02-21T14:52:46.367Z,63
2023-02-21T14:54:01.307Z,58
2023-02-21T14:55:13.862Z,60
2023-02-21T14:56:26.056Z,69
2023-02-21T14:57:43.608Z,70
2023-02-21T14:58:58.040Z,70
2023-02-21T15:00:07.033Z,69
2023-02-21T15:01:19.260Z,86
2023-02-21T15:02:33.663Z,78
2023-02-21T15:03:44.925Z,80
2023-02-21T15:04:54.481Z,76
2023-02-21T15:06:04.356Z,89
2023-02-21T15:07:11.486Z,96
2023-02-21T15:08:24.858Z,94
2023-02-21T15:09:32.129Z,98
2023-02-21T15:10:39.181Z,95
2023-02-21T15:11:46.313Z,94
2023-02-21T15:12:53.391Z,104
2023-02-21T15:14:05.444Z,93
2023-02-21T15:15:31.681Z,101
2023-02-21T15:16:40.309Z,98
2023-02-21T15:17:47.184Z,94
2023-02-21T15:18:59.508Z,102
2023-02-21T15:20:06.442Z,99
2023-02-21T15:21:18.583Z,103
2023-02-21T15:22:25.842Z,105
2023-02-21T15:23:37.971Z,102
2023-02-21T15:24:44.932Z,103
2023-02-21T15:26:07.771Z,102
2023-02-21T15:27:21.130Z,97
2023-02-21T15:28:29.995Z,91
2023-02-21T15:29:37.660Z,102
2023-02-21T15:30:44.746Z,100
2023-02-21T15:32:05.634Z,101
2023-02-21T15:33:12.789Z,100
2023-02-21T15:34:22.753Z,93
2023-02-21T15:35:31.474Z,102
2023-02-21T15:36:38.664Z,95
2023-02-21T15:37:45.662Z,105
2023-02-21T15:38:53.689Z,103
2023-02-21T15:40:08.664Z,103
2023-02-21T15:41:24.722Z,98
2023-02-21T15:42:35.203Z,109
2023-02-21T15:43:42.213Z,109
2023-02-21T15:44:52.195Z,107
2023-02-21T15:46:07.410Z,113
2023-02-21T15:47:18.758Z,110
2023-02-21T15:48:25.834Z,108
2023-02-21T15:49:37.121Z,116
2023-02-21T15:50:44.100Z,114
2023-02-21T15:51:56.276Z,109
2023-02-21T15:53:03.207Z,108
2023-02-21T15:54:20.373Z,107
2023-02-21T15:55:27.466Z,108
2023-02-21T15:56:34.536Z,108
2023-02-21T15:57:41.577Z,110
2023-02-21T15:58:58.751Z,111
2023-02-21T16:00:05.769Z,99
2023-02-21T16:01:23.872Z,111
2023-02-21T16:02:32.401Z,112
2023-02-21T16:03:39.056Z,112
2023-02-21T16:04:48.681Z,115
2023-02-21T16:05:58.077Z,110
2023-02-21T16:07:16.800Z,109
2023-02-21T16:08:28.401Z,110
2023-02-21T16:09:37.140Z,105
2023-02-21T16:10:44.117Z,107
2023-02-21T16:11:53.086Z,114
2023-02-21T16:13:09.864Z,117
2023-02-21T16:14:16.960Z,117
2023-02-21T16:15:29.052Z,115
2023-02-21T16:16:38.961Z,116
2023-02-21T16:17:45.889Z,120
2023-02-21T16:19:12.954Z,113
2023-02-21T16:20:19.862Z,115
2023-02-21T16:22:11.480Z,117
2023-02-21T16:23:28.507Z,119
2023-02-21T16:24:54.116Z,127
2023-02-21T16:26:16.894Z,134
2023-02-21T16:27:25.190Z,135
2023-02-21T16:28:32.228Z,148
2023-02-21T16:29:41.871Z,140
2023-02-21T16:30:55.516Z,144
2023-02-21T16:32:03.089Z,145
2023-02-21T16:33:14.461Z,152
2023-02-21T16:34:27.524Z,154
2023-02-21T16:35:34.426Z,158
2023-02-21T16:36:43.167Z,163
2023-02-21T16:37:50.195Z,168
2023-02-21T16:38:58.061Z,169
2023-02-21T16:40:05.461Z,174
2023-02-21T16:41:16.272Z,176
2023-02-21T16:42:22.400Z,180
2023-02-21T16:43:29.358Z,177
2023-02-21T16:44:36.234Z,179
2023-02-21T16:45:45.036Z,180
2023-02-21T16:46:54.404Z,175
2023-02-21T16:48:01.378Z,170
2023-02-21T16:49:19.329Z,165
2023-02-21T16:50:26.168Z,153
2023-02-21T16:51:36.116Z,151
2023-02-21T16:52:43.889Z,146
2023-02-21T16:53:50.924Z,145
2023-02-21T16:55:01.632Z,138
2023-02-21T16:56:08.799Z,132
2023-02-21T16:57:15.864Z,126
2023-02-21T16:58:22.972Z,125
2023-02-21T16:59:36.284Z,122
2023-02-21T17:00:47.206Z,113
2023-02-21T17:01:55.697Z,108
2023-02-21T17:03:02.700Z,111
2023-02-21T17:04:09.786Z,88
2023-02-21T17:05:26.182Z,84
2023-02-21T17:06:34.808Z,89
2023-02-21T17:07:43.868Z,88